sensor_id;sensor_type;location;lat;lon;timestamp;P1;durP1;ratioP1;P2;durP2;ratioP2
76393;SDS011;65216;51.090;-115.352;2022-12-07T00:01:46;11.30;;;1.80;;
76393;SDS011;65216;51.090;-115.352;2022-12-07T00:04:16;25.00;;;2.10;;
76393;SDS011;65216;51.090;-115.352;2022-12-07T00:06:46;15.20;;;2.50;;
76393;SDS011;65216;51.090;-115.352;2022-12-07T00:09:22;20.60;;;2.60;;
76393;SDS011;65216;51.090;-115.352;2022-12-07T00:11:51;19.90;;;1.90;;
76393;SDS011;65216;51.090;-115.352;2022-12-07T00:14:18;20.30;;;2.30;;
76393;SDS011;65216;51.090;-115.352;2022-12-07T00:16:48;22.30;;;1.90;;
76393;SDS011;65216;51.090;-115.352;2022-12-07T00:19:16;20.10;;;2.40;;
76393;SDS011;65216;51.090;-115.352;2022-12-07T00:21:44;20.40;;;2.40;;
76393;SDS011;65216;51.090;-115.352;2022-12-07T00:24:12;14.90;;;1.90;;
76393;SDS011;65216;51.090;-115.352;2022-12-07T00:26:41;17.40;;;2.30;;
76393;SDS011;65216;51.090;-115.352;2022-12-07T00:29:18;20.90;;;2.40;;
76393;SDS011;65216;51.090;-115.352;2022-12-07T00:31:47;14.90;;;3.00;;
76393;SDS011;65216;51.090;-115.352;2022-12-07T00:34:21;20.20;;;2.50;;
76393;SDS011;65216;51.090;-115.352;2022-12-07T00:36:49;22.10;;;2.30;;
76393;SDS011;65216;51.090;-115.352;2022-12-07T00:39:17;24.10;;;2.80;;
76393;SDS011;65216;51.090;-115.352;2022-12-07T00:41:49;23.40;;;2.50;;
76393;SDS011;65216;51.090;-115.352;2022-12-07T00:44:20;19.80;;;2.40;;
76393;SDS011;65216;51.090;-115.352;2022-12-07T00:46:53;24.60;;;2.30;;
76393;SDS011;65216;51.090;-115.352;2022-12-07T00:49:21;22.70;;;2.80;;
76393;SDS011;65216;51.090;-115.352;2022-12-07T00:51:52;23.30;;;2.90;;
76393;SDS011;65216;51.090;-115.352;2022-12-07T00:54:20;20.50;;;2.80;;
76393;SDS011;65216;51.090;-115.352;2022-12-07T00:56:48;26.10;;;3.10;;
76393;SDS011;65216;51.090;-115.352;2022-12-07T00:59:16;22.10;;;3.00;;
76393;SDS011;65216;51.090;-115.352;2022-12-07T01:01:49;14.60;;;2.40;;
76393;SDS011;65216;51.090;-115.352;2022-12-07T01:04:16;19.90;;;2.40;;
76393;SDS011;65216;51.090;-115.352;2022-12-07T01:06:44;18.00;;;2.70;;
76393;SDS011;65216;51.090;-115.352;2022-12-07T01:09:11;19.00;;;3.20;;
76393;SDS011;65216;51.090;-115.352;2022-12-07T01:11:41;24.50;;;2.60;;
76393;SDS011;65216;51.090;-115.352;2022-12-07T01:14:11;23.90;;;2.70;;
76393;SDS011;65216;51.090;-115.352;2022-12-07T01:16:38;25.10;;;2.80;;
76393;SDS011;65216;51.090;-115.352;2022-12-07T01:19:06;30.20;;;2.80;;
76393;SDS011;65216;51.090;-115.352;2022-12-07T01:21:35;18.90;;;2.70;;
76393;SDS011;65216;51.090;-115.352;2022-12-07T01:24:10;18.00;;;2.80;;
76393;SDS011;65216;51.090;-115.352;2022-12-07T01:26:37;18.00;;;2.20;;
76393;SDS011;65216;51.090;-115.352;2022-12-07T01:29:05;20.40;;;2.40;;
76393;SDS011;65216;51.090;-115.352;2022-12-07T01:31:35;20.30;;;2.40;;
76393;SDS011;65216;51.090;-115.352;2022-12-07T01:34:09;18.90;;;2.70;;
76393;SDS011;65216;51.090;-115.352;2022-12-07T01:36:36;14.20;;;2.20;;
76393;SDS011;65216;51.090;-115.352;2022-12-07T01:39:06;23.90;;;2.60;;
76393;SDS011;65216;51.090;-115.352;2022-12-07T01:41:37;19.90;;;2.10;;
76393;SDS011;65216;51.090;-115.352;2022-12-07T01:44:24;21.70;;;2.10;;
76393;SDS011;65216;51.090;-115.352;2022-12-07T01:47:02;28.70;;;2.80;;
76393;SDS011;65216;51.090;-115.352;2022-12-07T01:49:34;26.30;;;2.90;;
76393;SDS011;65216;51.090;-115.352;2022-12-07T01:52:10;9.60;;;1.60;;
76393;SDS011;65216;51.090;-115.352;2022-12-07T01:54:51;18.50;;;2.50;;
76393;SDS011;65216;51.090;-115.352;2022-12-07T01:57:21;27.40;;;2.90;;
76393;SDS011;65216;51.090;-115.352;2022-12-07T01:59:51;19.30;;;2.40;;
76393;SDS011;65216;51.090;-115.352;2022-12-07T02:05:06;23.50;;;2.30;;
76393;SDS011;65216;51.090;-115.352;2022-12-07T02:07:36;26.60;;;3.10;;
76393;SDS011;65216;51.090;-115.352;2022-12-07T02:10:19;24.40;;;2.30;;
76393;SDS011;65216;51.090;-115.352;2022-12-07T02:22:05;27.50;;;2.60;;
76393;SDS011;65216;51.090;-115.352;2022-12-07T02:33:26;29.40;;;3.10;;
76393;SDS011;65216;51.090;-115.352;2022-12-07T02:36:12;26.70;;;2.50;;
76393;SDS011;65216;51.090;-115.352;2022-12-07T02:41:59;22.20;;;2.40;;
76393;SDS011;65216;51.090;-115.352;2022-12-07T02:44:36;23.60;;;2.90;;
76393;SDS011;65216;51.090;-115.352;2022-12-07T02:47:07;20.20;;;2.20;;
76393;SDS011;65216;51.090;-115.352;2022-12-07T02:49:40;19.20;;;2.30;;
76393;SDS011;65216;51.090;-115.352;2022-12-07T02:52:10;21.60;;;3.70;;
76393;SDS011;65216;51.090;-115.352;2022-12-07T02:54:37;19.90;;;2.40;;
76393;SDS011;65216;51.090;-115.352;2022-12-07T02:57:12;17.50;;;2.40;;
76393;SDS011;65216;51.090;-115.352;2022-12-07T03:00:03;30.10;;;2.80;;
76393;SDS011;65216;51.090;-115.352;2022-12-07T03:02:59;24.30;;;2.90;;
76393;SDS011;65216;51.090;-115.352;2022-12-07T03:11:53;21.40;;;2.30;;
76393;SDS011;65216;51.090;-115.352;2022-12-07T03:14:41;24.30;;;2.60;;
76393;SDS011;65216;51.090;-115.352;2022-12-07T03:17:24;23.60;;;2.40;;
76393;SDS011;65216;51.090;-115.352;2022-12-07T03:19:58;24.70;;;3.60;;
76393;SDS011;65216;51.090;-115.352;2022-12-07T03:22:30;33.10;;;3.50;;
76393;SDS011;65216;51.090;-115.352;2022-12-07T03:25:04;18.90;;;2.60;;
76393;SDS011;65216;51.090;-115.352;2022-12-07T03:27:40;24.80;;;2.80;;
76393;SDS011;65216;51.090;-115.352;2022-12-07T03:30:17;25.60;;;3.00;;
76393;SDS011;65216;51.090;-115.352;2022-12-07T03:33:13;22.80;;;2.90;;
76393;SDS011;65216;51.090;-115.352;2022-12-07T03:41:17;30.40;;;3.40;;
76393;SDS011;65216;51.090;-115.352;2022-12-07T03:43:53;19.80;;;2.60;;
76393;SDS011;65216;51.090;-115.352;2022-12-07T03:57:24;20.00;;;2.00;;
76393;SDS011;65216;51.090;-115.352;2022-12-07T03:59:54;19.40;;;2.60;;
76393;SDS011;65216;51.090;-115.352;2022-12-07T04:02:27;20.70;;;2.30;;
76393;SDS011;65216;51.090;-115.352;2022-12-07T04:04:56;13.20;;;2.20;;
76393;SDS011;65216;51.090;-115.352;2022-12-07T04:07:23;13.70;;;2.00;;
76393;SDS011;65216;51.090;-115.352;2022-12-07T04:09:52;18.90;;;2.40;;
76393;SDS011;65216;51.090;-115.352;2022-12-07T04:12:21;17.30;;;2.30;;
76393;SDS011;65216;51.090;-115.352;2022-12-07T04:14:49;19.80;;;2.30;;
76393;SDS011;65216;51.090;-115.352;2022-12-07T04:17:20;13.60;;;2.00;;
76393;SDS011;65216;51.090;-115.352;2022-12-07T04:19:47;19.40;;;2.40;;
76393;SDS011;65216;51.090;-115.352;2022-12-07T04:22:15;22.10;;;2.20;;
76393;SDS011;65216;51.090;-115.352;2022-12-07T04:24:42;14.80;;;1.90;;
76393;SDS011;65216;51.090;-115.352;2022-12-07T04:27:10;13.60;;;2.20;;
76393;SDS011;65216;51.090;-115.352;2022-12-07T04:29:40;16.70;;;2.20;;
76393;SDS011;65216;51.090;-115.352;2022-12-07T04:32:07;9.80;;;1.60;;
76393;SDS011;65216;51.090;-115.352;2022-12-07T04:34:41;16.60;;;1.80;;
76393;SDS011;65216;51.090;-115.352;2022-12-07T04:37:09;19.00;;;2.10;;
76393;SDS011;65216;51.090;-115.352;2022-12-07T04:39:36;25.20;;;2.20;;
76393;SDS011;65216;51.090;-115.352;2022-12-07T04:42:06;11.30;;;1.80;;
76393;SDS011;65216;51.090;-115.352;2022-12-07T04:44:34;14.00;;;2.00;;
76393;SDS011;65216;51.090;-115.352;2022-12-07T04:47:02;13.20;;;2.10;;
76393;SDS011;65216;51.090;-115.352;2022-12-07T04:49:29;13.40;;;1.70;;
76393;SDS011;65216;51.090;-115.352;2022-12-07T04:52:00;8.70;;;1.50;;
76393;SDS011;65216;51.090;-115.352;2022-12-07T04:54:33;12.10;;;1.60;;
76393;SDS011;65216;51.090;-115.352;2022-12-07T04:57:03;12.20;;;1.70;;
76393;SDS011;65216;51.090;-115.352;2022-12-07T04:59:30;8.20;;;1.40;;
76393;SDS011;65216;51.090;-115.352;2022-12-07T05:01:58;10.70;;;1.60;;
76393;SDS011;65216;51.090;-115.352;2022-12-07T05:04:31;9.90;;;1.50;;
76393;SDS011;65216;51.090;-115.352;2022-12-07T05:06:58;6.90;;;1.50;;
76393;SDS011;65216;51.090;-115.352;2022-12-07T05:09:25;6.90;;;1.50;;
76393;SDS011;65216;51.090;-115.352;2022-12-07T05:11:53;8.40;;;1.30;;
76393;SDS011;65216;51.090;-115.352;2022-12-07T05:14:21;5.40;;;1.30;;
76393;SDS011;65216;51.090;-115.352;2022-12-07T05:16:50;3.20;;;1.00;;
76393;SDS011;65216;51.090;-115.352;2022-12-07T05:19:21;6.10;;;1.30;;
76393;SDS011;65216;51.090;-115.352;2022-12-07T05:21:52;9.00;;;1.20;;
76393;SDS011;65216;51.090;-115.352;2022-12-07T05:24:23;3.50;;;0.90;;
76393;SDS011;65216;51.090;-115.352;2022-12-07T05:26:50;3.20;;;0.90;;
76393;SDS011;65216;51.090;-115.352;2022-12-07T05:29:20;4.30;;;1.20;;
76393;SDS011;65216;51.090;-115.352;2022-12-07T05:31:51;2.70;;;0.90;;
76393;SDS011;65216;51.090;-115.352;2022-12-07T05:34:21;4.20;;;1.10;;
76393;SDS011;65216;51.090;-115.352;2022-12-07T05:36:52;5.20;;;1.00;;
76393;SDS011;65216;51.090;-115.352;2022-12-07T05:39:20;2.80;;;1.00;;
76393;SDS011;65216;51.090;-115.352;2022-12-07T05:41:47;3.40;;;0.70;;
76393;SDS011;65216;51.090;-115.352;2022-12-07T05:44:33;2.30;;;0.90;;
76393;SDS011;65216;51.090;-115.352;2022-12-07T05:47:03;2.30;;;0.70;;
76393;SDS011;65216;51.090;-115.352;2022-12-07T05:49:31;2.60;;;0.70;;
76393;SDS011;65216;51.090;-115.352;2022-12-07T05:51:58;3.50;;;0.80;;
76393;SDS011;65216;51.090;-115.352;2022-12-07T05:54:26;1.70;;;0.70;;
76393;SDS011;65216;51.090;-115.352;2022-12-07T05:56:53;3.30;;;0.90;;
76393;SDS011;65216;51.090;-115.352;2022-12-07T05:59:24;1.30;;;0.70;;
76393;SDS011;65216;51.090;-115.352;2022-12-07T06:01:54;1.50;;;0.60;;
76393;SDS011;65216;51.090;-115.352;2022-12-07T06:04:32;3.70;;;0.90;;
76393;SDS011;65216;51.090;-115.352;2022-12-07T06:07:04;2.60;;;0.70;;
76393;SDS011;65216;51.090;-115.352;2022-12-07T06:09:34;1.80;;;0.70;;
76393;SDS011;65216;51.090;-115.352;2022-12-07T06:12:02;1.20;;;0.60;;
76393;SDS011;65216;51.090;-115.352;2022-12-07T06:14:48;3.00;;;0.90;;
76393;SDS011;65216;51.090;-115.352;2022-12-07T06:17:16;1.80;;;0.70;;
76393;SDS011;65216;51.090;-115.352;2022-12-07T06:19:46;1.80;;;0.80;;
76393;SDS011;65216;51.090;-115.352;2022-12-07T06:22:17;1.50;;;0.70;;
76393;SDS011;65216;51.090;-115.352;2022-12-07T06:24:48;1.90;;;0.80;;
76393;SDS011;65216;51.090;-115.352;2022-12-07T06:27:15;2.00;;;0.60;;
76393;SDS011;65216;51.090;-115.352;2022-12-07T06:29:43;1.30;;;0.60;;
76393;SDS011;65216;51.090;-115.352;2022-12-07T06:32:10;1.50;;;0.60;;
76393;SDS011;65216;51.090;-115.352;2022-12-07T06:34:41;1.60;;;0.70;;
76393;SDS011;65216;51.090;-115.352;2022-12-07T06:37:08;1.50;;;0.60;;
76393;SDS011;65216;51.090;-115.352;2022-12-07T06:39:36;1.80;;;0.70;;
76393;SDS011;65216;51.090;-115.352;2022-12-07T06:42:06;1.60;;;0.60;;
76393;SDS011;65216;51.090;-115.352;2022-12-07T06:44:33;1.10;;;0.50;;
76393;SDS011;65216;51.090;-115.352;2022-12-07T06:47:01;1.90;;;0.80;;
76393;SDS011;65216;51.090;-115.352;2022-12-07T06:49:31;2.30;;;0.70;;
76393;SDS011;65216;51.090;-115.352;2022-12-07T06:52:02;2.20;;;0.70;;
76393;SDS011;65216;51.090;-115.352;2022-12-07T06:54:30;2.80;;;0.80;;
76393;SDS011;65216;51.090;-115.352;2022-12-07T06:56:58;1.20;;;0.70;;
76393;SDS011;65216;51.090;-115.352;2022-12-07T06:59:25;1.70;;;0.70;;
76393;SDS011;65216;51.090;-115.352;2022-12-07T07:01:53;1.40;;;0.70;;
76393;SDS011;65216;51.090;-115.352;2022-12-07T07:04:23;1.20;;;0.60;;
76393;SDS011;65216;51.090;-115.352;2022-12-07T07:06:54;0.70;;;0.60;;
76393;SDS011;65216;51.090;-115.352;2022-12-07T07:09:21;1.20;;;0.70;;
76393;SDS011;65216;51.090;-115.352;2022-12-07T07:11:52;0.70;;;0.60;;
76393;SDS011;65216;51.090;-115.352;2022-12-07T07:14:19;1.50;;;0.70;;
76393;SDS011;65216;51.090;-115.352;2022-12-07T07:16:47;1.20;;;0.70;;
76393;SDS011;65216;51.090;-115.352;2022-12-07T07:19:18;1.20;;;0.60;;
76393;SDS011;65216;51.090;-115.352;2022-12-07T07:21:46;1.60;;;0.60;;
76393;SDS011;65216;51.090;-115.352;2022-12-07T07:24:13;1.20;;;0.70;;
76393;SDS011;65216;51.090;-115.352;2022-12-07T07:26:41;0.90;;;0.40;;
76393;SDS011;65216;51.090;-115.352;2022-12-07T07:29:08;0.60;;;0.40;;
76393;SDS011;65216;51.090;-115.352;2022-12-07T07:31:40;1.10;;;0.40;;
76393;SDS011;65216;51.090;-115.352;2022-12-07T07:34:08;1.60;;;0.40;;
76393;SDS011;65216;51.090;-115.352;2022-12-07T07:36:35;1.10;;;0.40;;
76393;SDS011;65216;51.090;-115.352;2022-12-07T07:39:03;0.50;;;0.40;;
76393;SDS011;65216;51.090;-115.352;2022-12-07T07:41:32;1.30;;;0.50;;
76393;SDS011;65216;51.090;-115.352;2022-12-07T07:44:00;1.10;;;0.40;;
76393;SDS011;65216;51.090;-115.352;2022-12-07T07:46:27;0.90;;;0.40;;
76393;SDS011;65216;51.090;-115.352;2022-12-07T07:48:55;0.50;;;0.30;;
76393;SDS011;65216;51.090;-115.352;2022-12-07T07:51:22;1.00;;;0.50;;
76393;SDS011;65216;51.090;-115.352;2022-12-07T07:53:52;0.50;;;0.40;;
76393;SDS011;65216;51.090;-115.352;2022-12-07T07:56:23;0.60;;;0.30;;
76393;SDS011;65216;51.090;-115.352;2022-12-07T07:58:53;0.70;;;0.50;;
76393;SDS011;65216;51.090;-115.352;2022-12-07T08:01:21;0.40;;;0.30;;
76393;SDS011;65216;51.090;-115.352;2022-12-07T08:03:48;0.60;;;0.50;;
76393;SDS011;65216;51.090;-115.352;2022-12-07T08:06:19;1.60;;;0.40;;
76393;SDS011;65216;51.090;-115.352;2022-12-07T08:08:46;0.60;;;0.40;;
76393;SDS011;65216;51.090;-115.352;2022-12-07T08:11:14;0.70;;;0.40;;
76393;SDS011;65216;51.090;-115.352;2022-12-07T08:13:41;0.40;;;0.20;;
76393;SDS011;65216;51.090;-115.352;2022-12-07T08:18:43;0.50;;;0.30;;
76393;SDS011;65216;51.090;-115.352;2022-12-07T08:21:13;1.30;;;0.40;;
76393;SDS011;65216;51.090;-115.352;2022-12-07T08:23:42;0.80;;;0.30;;
76393;SDS011;65216;51.090;-115.352;2022-12-07T08:26:14;0.40;;;0.30;;
76393;SDS011;65216;51.090;-115.352;2022-12-07T08:28:45;0.90;;;0.40;;
76393;SDS011;65216;51.090;-115.352;2022-12-07T08:31:15;0.40;;;0.30;;
76393;SDS011;65216;51.090;-115.352;2022-12-07T08:33:48;0.40;;;0.20;;
76393;SDS011;65216;51.090;-115.352;2022-12-07T08:36:19;1.20;;;0.50;;
76393;SDS011;65216;51.090;-115.352;2022-12-07T08:38:50;0.40;;;0.20;;
76393;SDS011;65216;51.090;-115.352;2022-12-07T08:41:20;0.40;;;0.30;;
76393;SDS011;65216;51.090;-115.352;2022-12-07T08:43:51;0.30;;;0.30;;
76393;SDS011;65216;51.090;-115.352;2022-12-07T08:46:25;1.30;;;0.40;;
76393;SDS011;65216;51.090;-115.352;2022-12-07T08:49:31;1.50;;;0.30;;
76393;SDS011;65216;51.090;-115.352;2022-12-07T08:52:13;0.50;;;0.20;;
76393;SDS011;65216;51.090;-115.352;2022-12-07T08:54:43;2.70;;;0.30;;
76393;SDS011;65216;51.090;-115.352;2022-12-07T08:57:14;1.00;;;0.40;;
76393;SDS011;65216;51.090;-115.352;2022-12-07T08:59:42;1.50;;;0.30;;
76393;SDS011;65216;51.090;-115.352;2022-12-07T09:02:09;1.10;;;0.30;;
76393;SDS011;65216;51.090;-115.352;2022-12-07T09:04:37;2.70;;;0.40;;
76393;SDS011;65216;51.090;-115.352;2022-12-07T09:07:04;2.30;;;0.40;;
76393;SDS011;65216;51.090;-115.352;2022-12-07T09:09:34;6.00;;;0.70;;
76393;SDS011;65216;51.090;-115.352;2022-12-07T09:12:02;2.00;;;0.50;;
76393;SDS011;65216;51.090;-115.352;2022-12-07T09:14:35;1.40;;;0.40;;
76393;SDS011;65216;51.090;-115.352;2022-12-07T09:17:13;4.00;;;0.60;;
76393;SDS011;65216;51.090;-115.352;2022-12-07T09:19:40;2.80;;;0.50;;
76393;SDS011;65216;51.090;-115.352;2022-12-07T09:22:10;1.30;;;0.60;;
76393;SDS011;65216;51.090;-115.352;2022-12-07T09:24:40;7.50;;;0.70;;
76393;SDS011;65216;51.090;-115.352;2022-12-07T09:27:11;2.50;;;0.60;;
76393;SDS011;65216;51.090;-115.352;2022-12-07T09:29:39;4.10;;;0.50;;
76393;SDS011;65216;51.090;-115.352;2022-12-07T09:32:06;6.90;;;0.80;;
76393;SDS011;65216;51.090;-115.352;2022-12-07T09:34:37;7.50;;;0.70;;
76393;SDS011;65216;51.090;-115.352;2022-12-07T09:37:04;2.50;;;0.70;;
76393;SDS011;65216;51.090;-115.352;2022-12-07T09:39:32;5.40;;;0.70;;
76393;SDS011;65216;51.090;-115.352;2022-12-07T09:42:05;2.90;;;0.40;;
76393;SDS011;65216;51.090;-115.352;2022-12-07T09:44:35;5.70;;;0.70;;
76393;SDS011;65216;51.090;-115.352;2022-12-07T09:47:02;5.00;;;0.50;;
76393;SDS011;65216;51.090;-115.352;2022-12-07T09:49:32;2.50;;;0.70;;
76393;SDS011;65216;51.090;-115.352;2022-12-07T09:52:17;3.00;;;0.80;;
76393;SDS011;65216;51.090;-115.352;2022-12-07T09:54:53;5.40;;;0.80;;
76393;SDS011;65216;51.090;-115.352;2022-12-07T09:57:29;2.00;;;0.50;;
76393;SDS011;65216;51.090;-115.352;2022-12-07T10:00:17;5.10;;;0.70;;
76393;SDS011;65216;51.090;-115.352;2022-12-07T10:02:57;5.80;;;0.90;;
76393;SDS011;65216;51.090;-115.352;2022-12-07T10:05:36;3.60;;;0.90;;
76393;SDS011;65216;51.090;-115.352;2022-12-07T10:08:12;1.10;;;0.40;;
76393;SDS011;65216;51.090;-115.352;2022-12-07T10:15:43;3.20;;;0.60;;
76393;SDS011;65216;51.090;-115.352;2022-12-07T10:18:39;2.40;;;0.50;;
76393;SDS011;65216;51.090;-115.352;2022-12-07T10:21:15;1.30;;;0.50;;
76393;SDS011;65216;51.090;-115.352;2022-12-07T10:24:04;1.00;;;0.30;;
76393;SDS011;65216;51.090;-115.352;2022-12-07T10:29:31;0.80;;;0.30;;
76393;SDS011;65216;51.090;-115.352;2022-12-07T10:34:45;0.80;;;0.40;;
76393;SDS011;65216;51.090;-115.352;2022-12-07T10:37:20;2.40;;;0.40;;
76393;SDS011;65216;51.090;-115.352;2022-12-07T10:39:56;2.00;;;0.50;;
76393;SDS011;65216;51.090;-115.352;2022-12-07T10:42:26;0.60;;;0.40;;
76393;SDS011;65216;51.090;-115.352;2022-12-07T10:45:15;4.10;;;0.70;;
76393;SDS011;65216;51.090;-115.352;2022-12-07T10:54:46;1.10;;;0.50;;
76393;SDS011;65216;51.090;-115.352;2022-12-07T10:57:45;1.10;;;0.40;;
76393;SDS011;65216;51.090;-115.352;2022-12-07T11:07:22;0.50;;;0.30;;
76393;SDS011;65216;51.090;-115.352;2022-12-07T11:13:00;0.50;;;0.20;;
76393;SDS011;65216;51.090;-115.352;2022-12-07T11:24:24;0.70;;;0.30;;
76393;SDS011;65216;51.090;-115.352;2022-12-07T11:27:02;0.60;;;0.10;;
76393;SDS011;65216;51.090;-115.352;2022-12-07T11:39:28;0.80;;;0.20;;
76393;SDS011;65216;51.090;-115.352;2022-12-07T11:42:24;0.90;;;0.20;;
76393;SDS011;65216;51.090;-115.352;2022-12-07T11:44:59;0.40;;;0.20;;
76393;SDS011;65216;51.090;-115.352;2022-12-07T11:48:17;0.30;;;0.30;;
76393;SDS011;65216;51.090;-115.352;2022-12-07T11:50:59;0.40;;;0.10;;
76393;SDS011;65216;51.090;-115.352;2022-12-07T11:53:46;0.30;;;0.20;;
76393;SDS011;65216;51.090;-115.352;2022-12-07T11:56:25;0.40;;;0.20;;
76393;SDS011;65216;51.090;-115.352;2022-12-07T11:59:13;0.20;;;0.20;;
76393;SDS011;65216;51.090;-115.352;2022-12-07T12:01:48;0.30;;;0.10;;
76393;SDS011;65216;51.090;-115.352;2022-12-07T12:07:22;0.20;;;0.10;;
76393;SDS011;65216;51.090;-115.352;2022-12-07T12:10:02;0.30;;;0.20;;
76393;SDS011;65216;51.090;-115.352;2022-12-07T12:18:30;0.40;;;0.20;;
76393;SDS011;65216;51.090;-115.352;2022-12-07T12:21:29;0.50;;;0.30;;
76393;SDS011;65216;51.090;-115.352;2022-12-07T12:24:22;0.20;;;0.20;;
76393;SDS011;65216;51.090;-115.352;2022-12-07T12:27:05;0.20;;;0.20;;
76393;SDS011;65216;51.090;-115.352;2022-12-07T12:29:42;0.20;;;0.10;;
76393;SDS011;65216;51.090;-115.352;2022-12-07T12:32:42;0.30;;;0.10;;
76393;SDS011;65216;51.090;-115.352;2022-12-07T12:35:28;0.60;;;0.10;;
76393;SDS011;65216;51.090;-115.352;2022-12-07T12:38:29;0.30;;;0.10;;
76393;SDS011;65216;51.090;-115.352;2022-12-07T12:41:00;0.20;;;0.20;;
76393;SDS011;65216;51.090;-115.352;2022-12-07T12:43:58;0.30;;;0.20;;
76393;SDS011;65216;51.090;-115.352;2022-12-07T12:51:47;0.40;;;0.20;;
76393;SDS011;65216;51.090;-115.352;2022-12-07T12:56:58;0.70;;;0.10;;
76393;SDS011;65216;51.090;-115.352;2022-12-07T13:07:52;0.10;;;0.10;;
76393;SDS011;65216;51.090;-115.352;2022-12-07T13:13:03;0.90;;;0.20;;
76393;SDS011;65216;51.090;-115.352;2022-12-07T13:20:58;0.40;;;0.20;;
76393;SDS011;65216;51.090;-115.352;2022-12-07T13:28:48;0.30;;;0.30;;
76393;SDS011;65216;51.090;-115.352;2022-12-07T13:33:58;0.20;;;0.10;;
76393;SDS011;65216;51.090;-115.352;2022-12-07T13:36:37;0.10;;;0.10;;
76393;SDS011;65216;51.090;-115.352;2022-12-07T13:39:19;0.20;;;0.10;;
76393;SDS011;65216;51.090;-115.352;2022-12-07T13:41:55;0.50;;;0.30;;
76393;SDS011;65216;51.090;-115.352;2022-12-07T13:44:26;0.50;;;0.20;;
76393;SDS011;65216;51.090;-115.352;2022-12-07T13:49:54;0.30;;;0.10;;
76393;SDS011;65216;51.090;-115.352;2022-12-07T13:52:29;0.30;;;0.20;;
76393;SDS011;65216;51.090;-115.352;2022-12-07T13:57:40;0.20;;;0.20;;
76393;SDS011;65216;51.090;-115.352;2022-12-07T14:00:26;0.60;;;0.30;;
76393;SDS011;65216;51.090;-115.352;2022-12-07T14:03:04;1.20;;;0.20;;
76393;SDS011;65216;51.090;-115.352;2022-12-07T14:13:35;0.30;;;0.20;;
76393;SDS011;65216;51.090;-115.352;2022-12-07T14:16:32;0.40;;;0.20;;
76393;SDS011;65216;51.090;-115.352;2022-12-07T14:19:03;0.40;;;0.20;;
76393;SDS011;65216;51.090;-115.352;2022-12-07T14:21:33;0.60;;;0.20;;
76393;SDS011;65216;51.090;-115.352;2022-12-07T14:26:49;0.20;;;0.10;;
76393;SDS011;65216;51.090;-115.352;2022-12-07T14:31:56;0.20;;;0.20;;
76393;SDS011;65216;51.090;-115.352;2022-12-07T14:34:25;0.50;;;0.20;;
76393;SDS011;65216;51.090;-115.352;2022-12-07T14:36:52;0.90;;;0.30;;
76393;SDS011;65216;51.090;-115.352;2022-12-07T14:39:23;0.20;;;0.20;;
76393;SDS011;65216;51.090;-115.352;2022-12-07T14:41:56;0.10;;;0.10;;
76393;SDS011;65216;51.090;-115.352;2022-12-07T14:44:23;1.10;;;0.30;;
76393;SDS011;65216;51.090;-115.352;2022-12-07T14:46:54;0.10;;;0.10;;
76393;SDS011;65216;51.090;-115.352;2022-12-07T14:49:22;0.50;;;0.20;;
76393;SDS011;65216;51.090;-115.352;2022-12-07T14:51:49;0.20;;;0.10;;
76393;SDS011;65216;51.090;-115.352;2022-12-07T14:54:23;0.10;;;0.10;;
76393;SDS011;65216;51.090;-115.352;2022-12-07T14:56:54;0.20;;;0.10;;
76393;SDS011;65216;51.090;-115.352;2022-12-07T14:59:24;0.40;;;0.30;;
76393;SDS011;65216;51.090;-115.352;2022-12-07T15:01:51;0.80;;;0.20;;
76393;SDS011;65216;51.090;-115.352;2022-12-07T15:04:19;0.20;;;0.20;;
76393;SDS011;65216;51.090;-115.352;2022-12-07T15:07:01;0.20;;;0.20;;
76393;SDS011;65216;51.090;-115.352;2022-12-07T15:09:30;0.50;;;0.20;;
76393;SDS011;65216;51.090;-115.352;2022-12-07T15:12:00;0.20;;;0.20;;
76393;SDS011;65216;51.090;-115.352;2022-12-07T15:14:32;0.10;;;0.10;;
76393;SDS011;65216;51.090;-115.352;2022-12-07T15:16:59;1.00;;;0.30;;
76393;SDS011;65216;51.090;-115.352;2022-12-07T15:19:27;0.30;;;0.20;;
76393;SDS011;65216;51.090;-115.352;2022-12-07T15:21:57;0.90;;;0.30;;
76393;SDS011;65216;51.090;-115.352;2022-12-07T15:24:26;0.40;;;0.20;;
76393;SDS011;65216;51.090;-115.352;2022-12-07T15:26:56;0.20;;;0.20;;
76393;SDS011;65216;51.090;-115.352;2022-12-07T15:29:26;0.40;;;0.20;;
76393;SDS011;65216;51.090;-115.352;2022-12-07T15:31:54;0.70;;;0.20;;
76393;SDS011;65216;51.090;-115.352;2022-12-07T15:34:25;0.40;;;0.20;;
76393;SDS011;65216;51.090;-115.352;2022-12-07T15:36:54;0.10;;;0.10;;
76393;SDS011;65216;51.090;-115.352;2022-12-07T15:39:24;0.20;;;0.10;;
76393;SDS011;65216;51.090;-115.352;2022-12-07T15:41:52;0.40;;;0.30;;
76393;SDS011;65216;51.090;-115.352;2022-12-07T15:44:19;0.50;;;0.20;;
76393;SDS011;65216;51.090;-115.352;2022-12-07T15:47:06;0.40;;;0.30;;
76393;SDS011;65216;51.090;-115.352;2022-12-07T15:49:33;0.20;;;0.10;;
76393;SDS011;65216;51.090;-115.352;2022-12-07T15:52:03;0.20;;;0.20;;
76393;SDS011;65216;51.090;-115.352;2022-12-07T15:54:31;0.60;;;0.30;;
76393;SDS011;65216;51.090;-115.352;2022-12-07T15:57:00;1.80;;;0.40;;
76393;SDS011;65216;51.090;-115.352;2022-12-07T15:59:29;2.00;;;0.30;;
76393;SDS011;65216;51.090;-115.352;2022-12-07T16:01:56;4.50;;;0.50;;
76393;SDS011;65216;51.090;-115.352;2022-12-07T16:04:24;3.20;;;0.80;;
76393;SDS011;65216;51.090;-115.352;2022-12-07T16:06:56;2.60;;;0.50;;
76393;SDS011;65216;51.090;-115.352;2022-12-07T16:09:23;1.70;;;0.40;;
76393;SDS011;65216;51.090;-115.352;2022-12-07T16:11:51;3.40;;;0.60;;
76393;SDS011;65216;51.090;-115.352;2022-12-07T16:14:18;1.60;;;0.40;;
76393;SDS011;65216;51.090;-115.352;2022-12-07T16:16:47;1.80;;;0.50;;
76393;SDS011;65216;51.090;-115.352;2022-12-07T16:19:18;4.20;;;0.40;;
76393;SDS011;65216;51.090;-115.352;2022-12-07T16:21:45;1.60;;;0.40;;
76393;SDS011;65216;51.090;-115.352;2022-12-07T16:24:12;2.10;;;0.40;;
76393;SDS011;65216;51.090;-115.352;2022-12-07T16:26:44;0.80;;;0.30;;
76393;SDS011;65216;51.090;-115.352;2022-12-07T16:29:12;1.30;;;0.30;;
76393;SDS011;65216;51.090;-115.352;2022-12-07T16:31:45;1.40;;;0.40;;
76393;SDS011;65216;51.090;-115.352;2022-12-07T16:34:13;2.20;;;0.40;;
76393;SDS011;65216;51.090;-115.352;2022-12-07T16:36:40;1.30;;;0.30;;
76393;SDS011;65216;51.090;-115.352;2022-12-07T16:39:09;2.30;;;0.50;;
76393;SDS011;65216;51.090;-115.352;2022-12-07T16:41:36;2.70;;;0.60;;
76393;SDS011;65216;51.090;-115.352;2022-12-07T16:44:06;4.20;;;0.60;;
76393;SDS011;65216;51.090;-115.352;2022-12-07T16:46:39;4.30;;;0.60;;
76393;SDS011;65216;51.090;-115.352;2022-12-07T16:49:09;1.40;;;0.40;;
76393;SDS011;65216;51.090;-115.352;2022-12-07T16:51:41;3.20;;;0.50;;
76393;SDS011;65216;51.090;-115.352;2022-12-07T16:54:12;1.00;;;0.30;;
76393;SDS011;65216;51.090;-115.352;2022-12-07T16:56:40;3.30;;;0.60;;
76393;SDS011;65216;51.090;-115.352;2022-12-07T16:59:08;3.90;;;0.50;;
76393;SDS011;65216;51.090;-115.352;2022-12-07T17:01:38;3.10;;;0.60;;
76393;SDS011;65216;51.090;-115.352;2022-12-07T17:04:06;2.40;;;0.20;;
76393;SDS011;65216;51.090;-115.352;2022-12-07T17:06:37;3.30;;;0.40;;
76393;SDS011;65216;51.090;-115.352;2022-12-07T17:09:07;3.60;;;0.60;;
76393;SDS011;65216;51.090;-115.352;2022-12-07T17:11:35;2.00;;;0.60;;